createdAt,value
2022-08-08T00:00:52.316Z,98523.66
2022-08-08T00:03:35.895Z,98530.25
2022-08-08T00:06:03.867Z,98518.94
2022-08-08T00:08:48.866Z,98515.38
2022-08-08T00:12:07.384Z,98512.75
2022-08-08T00:14:56.978Z,98516.09
2022-08-08T00:18:02.338Z,98504.94
2022-08-08T00:20:35.981Z,98496.16
2022-08-08T00:23:10.248Z,98495.81
2022-08-08T00:25:46.166Z,98500.06
2022-08-08T00:28:35.417Z,98503.09
2022-08-08T00:32:28.743Z,98505.22
2022-08-08T00:34:51.117Z,98508.78
2022-08-08T00:38:01.381Z,98510.47
2022-08-08T00:41:11.940Z,98502.38
2022-08-08T00:43:56.287Z,98505.94
2022-08-08T00:46:55.829Z,98496.22
2022-08-08T00:49:42.604Z,98497.03
2022-08-08T00:52:29.175Z,98498.97
2022-08-08T00:55:52.858Z,98491.13
2022-08-08T00:58:38.844Z,98493.75
2022-08-08T01:01:14.537Z,98488.78
2022-08-08T01:04:26.782Z,98490.34
2022-08-08T01:07:34.412Z,98484.25
2022-08-08T01:10:50.881Z,98480.81
2022-08-08T01:13:43.469Z,98484.97
2022-08-08T01:16:27.965Z,98482.00
2022-08-08T01:19:42.033Z,98481.59
2022-08-08T01:22:46.178Z,98478.78
2022-08-08T01:25:54.127Z,98474.47
2022-08-08T01:29:15.084Z,98477.44
2022-08-08T01:32:13.782Z,98481.91
2022-08-08T01:35:30.192Z,98485.06
2022-08-08T01:38:37.611Z,98480.38
2022-08-08T01:41:38.101Z,98485.84
2022-08-08T01:44:13.076Z,98487.00
2022-08-08T01:48:15.484Z,98489.75
2022-08-08T01:49:59.379Z,98485.50
2022-08-08T01:54:19.275Z,98494.88
2022-08-08T01:56:31.279Z,98480.47
2022-08-08T01:59:09.997Z,98479.13
2022-08-08T02:02:39.780Z,98478.53
2022-08-08T02:05:55.886Z,98487.47
2022-08-08T02:08:35.165Z,98485.56
2022-08-08T02:11:52.710Z,98487.56
2022-08-08T02:15:04.193Z,98481.13
2022-08-08T02:17:59.308Z,98484.50
2022-08-08T02:21:00.983Z,98489.13
2022-08-08T02:23:36.802Z,98486.47
2022-08-08T02:26:15.721Z,98492.22
2022-08-08T02:29:14.824Z,98488.56
2022-08-08T02:32:10.707Z,98483.25
2022-08-08T02:35:28.302Z,98484.03
2022-08-08T02:38:30.082Z,98489.09
2022-08-08T02:41:58.796Z,98493.28
2022-08-08T02:44:43.050Z,98486.56
2022-08-08T02:47:19.097Z,98491.47
2022-08-08T02:50:04.537Z,98487.69
2022-08-08T02:52:40.955Z,98486.56
2022-08-08T02:55:40.711Z,98470.75
2022-08-08T02:58:26.736Z,98481.94
2022-08-08T03:01:19.642Z,98483.81
2022-08-08T03:05:04.488Z,98480.84
2022-08-08T03:06:58.089Z,98477.50
2022-08-08T03:09:30.713Z,98484.38
2022-08-08T03:13:01.092Z,98478.91
2022-08-08T03:16:34.343Z,98475.66
2022-08-08T03:19:30.798Z,98481.88
2022-08-08T03:21:59.793Z,98480.09
2022-08-08T03:24:29.249Z,98482.44
2022-08-08T03:27:09.889Z,98484.03
2022-08-08T03:29:56.368Z,98481.75
2022-08-08T03:32:47.583Z,98490.22
2022-08-08T03:35:26.706Z,98486.78
2022-08-08T03:38:55.821Z,98494.09
2022-08-08T03:40:55.094Z,98499.53
2022-08-08T03:43:25.220Z,98498.75
2022-08-08T03:46:09.298Z,98492.81
2022-08-08T03:49:32.869Z,98493.94
2022-08-08T03:51:50.300Z,98495.66
2022-08-08T03:54:41.235Z,98492.50
2022-08-08T03:58:31.854Z,98499.28
2022-08-08T04:00:11.721Z,98493.13
2022-08-08T04:02:54.941Z,98509.00
2022-08-08T04:05:28.530Z,98509.66
2022-08-08T04:08:02.220Z,98504.75
2022-08-08T04:10:32.489Z,98503.31
2022-08-08T04:13:17.605Z,98505.94
2022-08-08T04:15:54.891Z,98505.72
2022-08-08T04:18:41.946Z,98509.00
2022-08-08T04:21:22.876Z,98518.00
2022-08-08T04:24:05.379Z,98511.31
2022-08-08T04:26:58.253Z,98519.75
2022-08-08T04:29:36.608Z,98519.13
2022-08-08T04:32:07.526Z,98522.03
2022-08-08T04:34:42.816Z,98524.47
2022-08-08T04:37:16.903Z,98522.88
2022-08-08T04:40:04.596Z,98525.78
2022-08-08T04:42:34.142Z,98533.31
2022-08-08T04:45:05.406Z,98537.34
2022-08-08T04:47:36.617Z,98546.13
2022-08-08T04:50:23.683Z,98548.44
2022-08-08T04:53:00.646Z,98549.88
2022-08-08T04:55:47.309Z,98563.81
2022-08-08T04:58:17.485Z,98564.34
2022-08-08T05:00:48.380Z,98560.06
2022-08-08T05:04:07.457Z,98563.31
2022-08-08T05:06:12.535Z,98562.03
2022-08-08T05:08:44.186Z,98560.41
2022-08-08T05:11:18.609Z,98562.19
2022-08-08T05:13:58.387Z,98556.09
2022-08-08T05:16:50.861Z,98563.34
2022-08-08T05:20:09.883Z,98557.59
2022-08-08T05:22:09.035Z,98572.22
2022-08-08T05:24:40.404Z,98567.63
2022-08-08T05:27:07.883Z,98573.91
2022-08-08T05:29:37.247Z,98571.69
2022-08-08T05:32:09.290Z,98578.56
2022-08-08T05:34:42.397Z,98575.97
2022-08-08T05:37:19.078Z,98580.66
2022-08-08T05:39:55.847Z,98573.09
2022-08-08T05:42:39.359Z,98575.38
2022-08-08T05:45:10.435Z,98575.75
2022-08-08T05:48:01.451Z,98580.66
2022-08-08T05:50:33.637Z,98584.16
2022-08-08T05:53:23.003Z,98581.03
2022-08-08T05:56:09.746Z,98579.91
2022-08-08T05:58:45.449Z,98583.75
2022-08-08T06:01:52.527Z,98579.97
2022-08-08T06:04:23.504Z,98584.59
2022-08-08T06:06:56.419Z,98584.72
2022-08-08T06:10:00.267Z,98576.06
2022-08-08T06:12:29.926Z,98580.16
2022-08-08T06:15:03.327Z,98581.16
2022-08-08T06:18:18.586Z,98584.03
2022-08-08T06:20:21.889Z,98583.50
2022-08-08T06:22:50.785Z,98576.63
2022-08-08T06:25:33.265Z,98577.28
2022-08-08T06:28:29.439Z,98577.03
2022-08-08T06:31:00.337Z,98575.03
2022-08-08T06:33:36.880Z,98576.38
2022-08-08T06:36:10.007Z,98583.06
2022-08-08T06:38:43.878Z,98579.19
2022-08-08T06:41:15.353Z,98571.88
2022-08-08T06:43:47.670Z,98581.06
2022-08-08T06:46:29.915Z,98570.63
2022-08-08T06:49:00.723Z,98572.69
2022-08-08T06:51:31.468Z,98570.16
2022-08-08T06:54:19.640Z,98573.25
2022-08-08T06:56:51.504Z,98575.28
2022-08-08T06:59:20.323Z,98572.91
2022-08-08T07:02:27.613Z,98577.25
2022-08-08T07:04:56.361Z,98587.56
2022-08-08T07:07:46.490Z,98577.63
2022-08-08T07:10:19.496Z,98577.56
2022-08-08T07:12:54.242Z,98570.06
2022-08-08T07:16:05.193Z,98581.38
2022-08-08T07:18:55.936Z,98581.78
2022-08-08T07:21:33.009Z,98576.25
2022-08-08T07:24:14.045Z,98574.94
2022-08-08T07:26:50.874Z,98578.44
2022-08-08T07:30:01.685Z,98566.88
2022-08-08T07:32:10.785Z,98575.19
2022-08-08T07:34:59.214Z,98573.16
2022-08-08T07:37:56.161Z,98572.94
2022-08-08T07:40:29.819Z,98568.75
2022-08-08T07:43:09.561Z,98579.72
2022-08-08T07:46:05.153Z,98570.47
2022-08-08T07:48:31.023Z,98572.50
2022-08-08T07:51:01.007Z,98574.88
2022-08-08T07:54:01.333Z,98568.59
2022-08-08T07:57:17.093Z,98569.38
2022-08-08T08:00:16.672Z,98568.19
2022-08-08T08:03:16.810Z,98571.22
2022-08-08T08:05:54.140Z,98568.66
2022-08-08T08:08:52.022Z,98560.69
2022-08-08T08:11:33.608Z,98562.56
2022-08-08T08:14:11.381Z,98567.03
2022-08-08T08:16:48.487Z,98560.31
2022-08-08T08:19:17.867Z,98563.44
2022-08-08T08:21:57.735Z,98564.81
2022-08-08T08:24:42.931Z,98563.03
2022-08-08T08:27:13.678Z,98566.34
2022-08-08T08:29:43.298Z,98563.03
2022-08-08T08:32:14.132Z,98560.28
2022-08-08T08:34:59.385Z,98561.06
2022-08-08T08:37:30.122Z,98562.91
2022-08-08T08:40:00.853Z,98562.91
2022-08-08T08:42:35.708Z,98563.25
2022-08-08T08:45:21.914Z,98571.47
2022-08-08T08:47:58.486Z,98568.84
2022-08-08T08:50:34.301Z,98564.78
2022-08-08T08:53:54.923Z,98561.97
2022-08-08T08:56:02.977Z,98568.84
2022-08-08T08:58:50.100Z,98564.94
2022-08-08T09:01:32.137Z,98568.88
2022-08-08T09:04:31.279Z,98566.94
2022-08-08T09:07:12.928Z,98562.03
2022-08-08T09:09:48.121Z,98561.72
2022-08-08T09:12:26.022Z,98570.75
2022-08-08T09:14:57.382Z,98558.81
2022-08-08T09:17:40.749Z,98559.78
2022-08-08T09:22:01.801Z,98551.25
2022-08-08T09:23:02.767Z,98547.31
2022-08-08T09:25:35.941Z,98549.94
2022-08-08T09:28:37.423Z,98552.22
2022-08-08T09:31:20.522Z,98551.22
2022-08-08T09:34:14.687Z,98546.28
2022-08-08T09:36:51.750Z,98558.06
2022-08-08T09:39:41.779Z,98541.81
2022-08-08T09:42:20.565Z,98546.44
2022-08-08T09:45:08.346Z,98539.38
2022-08-08T09:48:09.427Z,98538.81
2022-08-08T09:50:34.726Z,98532.28
2022-08-08T09:53:22.274Z,98529.94
2022-08-08T09:56:03.383Z,98534.31
2022-08-08T09:58:41.650Z,98532.22
2022-08-08T10:01:15.632Z,98525.25
2022-08-08T10:04:02.484Z,98530.16
2022-08-08T10:06:32.866Z,98522.47
2022-08-08T10:09:03.068Z,98523.94
2022-08-08T10:12:27.602Z,98515.75
2022-08-08T10:14:28.124Z,98519.03
2022-08-08T10:17:57.322Z,98518.22
2022-08-08T10:20:00.104Z,98509.44
2022-08-08T10:22:29.598Z,98508.75
2022-08-08T10:25:03.171Z,98507.22
2022-08-08T10:27:41.642Z,98503.19
2022-08-08T10:30:16.557Z,98500.06
2022-08-08T10:33:00.234Z,98504.72
2022-08-08T10:36:20.565Z,98505.78
2022-08-08T10:38:19.913Z,98501.56
2022-08-08T10:40:51.242Z,98505.22
2022-08-08T10:43:20.084Z,98496.66
2022-08-08T10:45:56.466Z,98500.50
2022-08-08T10:48:57.850Z,98499.22
2022-08-08T10:51:26.284Z,98493.31
2022-08-08T10:53:58.066Z,98489.69
2022-08-08T10:56:27.465Z,98483.41
2022-08-08T10:59:09.234Z,98485.97
2022-08-08T11:01:39.005Z,98484.16
2022-08-08T11:04:10.374Z,98484.84
2022-08-08T11:06:41.828Z,98473.66
2022-08-08T11:09:19.898Z,98470.22
2022-08-08T11:12:06.158Z,98478.13
2022-08-08T11:15:12.212Z,98475.88
